Time;durP1;ratioP1;P1;durP2;ratioP2;P2;SDS_P1;SDS_P2;PMS_P1;PMS_P2;Temp;Humidity;BMP_temperature;BMP_pressure;BME280_temperature;BME280_humidity;BME280_pressure;Samples;Min_cycle;Max_cycle;Signal;HPM_P1;HPM_P2
2023/07/26 00:00:49;;;;;;;0.70;0.70;;;;;;;;;;5023495;28;20447;-81
2023/07/26 00:03:16;;;;;;;0.70;0.60;;;;;;;;;;5007182;28;20473;-81
2023/07/26 00:05:47;;;;;;;0.77;0.77;;;;;;;;;;5026292;28;20453;-81
2023/07/26 00:08:15;;;;;;;0.90;0.90;;;;;;;;;;5010911;28;20565;-81
2023/07/26 00:10:43;;;;;;;0.80;0.77;;;;;;;;;;5001868;28;20449;-81
2023/07/26 00:13:13;;;;;;;0.80;0.80;;;;;;;;;;5007258;28;20446;-81
2023/07/26 00:15:40;;;;;;;0.70;0.70;;;;;;;;;;5006967;28;21055;-81
2023/07/26 00:18:07;;;;;;;0.80;0.80;;;;;;;;;;5028416;28;20849;-82
2023/07/26 00:20:36;;;;;;;0.80;0.80;;;;;;;;;;5025856;28;20449;-82
2023/07/26 00:23:03;;;;;;;0.80;0.80;;;;;;;;;;5024692;28;20478;-82
2023/07/26 00:25:30;;;;;;;0.80;0.70;;;;;;;;;;5029168;28;20506;-81
2023/07/26 00:27:57;;;;;;;0.70;0.70;;;;;;;;;;5024231;28;20450;-80
2023/07/26 00:30:27;;;;;;;0.70;0.70;;;;;;;;;;5021896;28;20434;-81
2023/07/26 00:32:54;;;;;;;0.80;0.80;;;;;;;;;;5011550;28;20445;-81
2023/07/26 00:35:24;;;;;;;0.70;0.70;;;;;;;;;;5023629;28;20517;-81
2023/07/26 00:37:54;;;;;;;0.70;0.70;;;;;;;;;;5025589;28;20459;-81
2023/07/26 00:40:21;;;;;;;0.70;0.70;;;;;;;;;;5024147;28;20457;-82
2023/07/26 00:42:49;;;;;;;0.70;0.60;;;;;;;;;;5022162;28;20465;-81
2023/07/26 00:45:16;;;;;;;0.70;0.70;;;;;;;;;;5025619;28;20438;-82
2023/07/26 00:47:46;;;;;;;0.80;0.80;;;;;;;;;;5012304;28;20868;-81
2023/07/26 00:50:15;;;;;;;0.70;0.60;;;;;;;;;;5021933;28;20483;-81
2023/07/26 00:52:43;;;;;;;0.70;0.60;;;;;;;;;;5022779;28;20988;-82
2023/07/26 00:55:10;;;;;;;0.70;0.60;;;;;;;;;;5012469;28;20453;-82
2023/07/26 00:57:38;;;;;;;0.80;0.80;;;;;;;;;;5023645;28;20426;-82
2023/07/26 01:00:08;;;;;;;7.70;2.20;;;;;;;;;;5022509;28;20506;-81
2023/07/26 01:02:38;;;;;;;0.80;0.80;;;;;;;;;;5009323;28;20453;-82
2023/07/26 01:05:07;;;;;;;0.70;0.70;;;;;;;;;;5006679;28;20502;-82
2023/07/26 01:07:38;;;;;;;1.20;1.10;;;;;;;;;;5027135;28;20466;-82
2023/07/26 01:10:10;;;;;;;0.80;0.80;;;;;;;;;;5021990;28;20442;-82
2023/07/26 01:12:46;;;;;;;0.80;0.80;;;;;;;;;;5014861;28;20437;-82
2023/07/26 01:15:16;;;;;;;1.27;1.17;;;;;;;;;;5007706;28;20457;-82
2023/07/26 01:17:45;;;;;;;0.90;0.90;;;;;;;;;;5022720;28;20438;-82
2023/07/26 01:20:16;;;;;;;0.80;0.77;;;;;;;;;;5011114;28;20492;-81
2023/07/26 01:22:45;;;;;;;0.80;0.80;;;;;;;;;;5018972;28;20458;-82
2023/07/26 01:25:12;;;;;;;0.73;0.70;;;;;;;;;;5012581;28;20442;-82
2023/07/26 01:27:43;;;;;;;0.70;0.70;;;;;;;;;;5023206;28;20435;-82
2023/07/26 01:30:14;;;;;;;1.57;1.10;;;;;;;;;;5021822;28;20457;-82
2023/07/26 01:32:43;;;;;;;0.73;0.70;;;;;;;;;;5013746;28;20431;-82
2023/07/26 01:35:10;;;;;;;0.80;0.80;;;;;;;;;;5022739;28;20497;-82
2023/07/26 01:37:41;;;;;;;1.43;1.33;;;;;;;;;;5001497;28;20476;-82
2023/07/26 01:40:13;;;;;;;0.70;0.70;;;;;;;;;;5024496;28;20922;-82
2023/07/26 01:42:43;;;;;;;0.80;0.80;;;;;;;;;;5010160;28;20460;-81
2023/07/26 01:45:12;;;;;;;0.80;0.80;;;;;;;;;;5013389;28;20794;-81
2023/07/26 01:47:39;;;;;;;1.13;1.00;;;;;;;;;;5013917;28;20458;-81
2023/07/26 01:50:06;;;;;;;0.80;0.70;;;;;;;;;;5013778;28;20531;-81
2023/07/26 01:52:37;;;;;;;1.73;1.63;;;;;;;;;;5025022;28;20473;-82
2023/07/26 01:55:07;;;;;;;0.77;0.73;;;;;;;;;;5008105;28;20457;-82
2023/07/26 01:57:36;;;;;;;0.77;0.77;;;;;;;;;;5025798;28;20432;-82
2023/07/26 02:00:05;;;;;;;0.70;0.70;;;;;;;;;;5006093;28;20816;-81
2023/07/26 02:02:38;;;;;;;0.80;0.80;;;;;;;;;;5022826;28;20415;-82
2023/07/26 02:05:06;;;;;;;0.70;0.70;;;;;;;;;;5008890;28;20484;-82
2023/07/26 02:07:36;;;;;;;0.90;0.70;;;;;;;;;;5000646;28;20423;-82
2023/07/26 02:10:04;;;;;;;0.80;0.80;;;;;;;;;;5028297;28;20190;-82
2023/07/26 02:12:39;;;;;;;0.90;0.90;;;;;;;;;;5026960;28;20474;-82
2023/07/26 02:15:08;;;;;;;0.70;0.70;;;;;;;;;;5024773;28;20490;-82
2023/07/26 02:17:34;;;;;;;1.17;1.07;;;;;;;;;;5029813;28;20507;-82
2023/07/26 02:20:02;;;;;;;0.70;0.70;;;;;;;;;;5029208;28;20445;-82
2023/07/26 02:22:31;;;;;;;0.90;0.90;;;;;;;;;;5024746;28;20464;-81
2023/07/26 02:25:00;;;;;;;0.70;0.70;;;;;;;;;;5016415;28;20834;-82
2023/07/26 02:27:28;;;;;;;0.70;0.70;;;;;;;;;;5028124;28;20454;-81
2023/07/26 02:29:56;;;;;;;0.80;0.80;;;;;;;;;;5013121;28;20450;-81
2023/07/26 02:32:23;;;;;;;0.83;0.83;;;;;;;;;;5005997;28;20539;-83
2023/07/26 02:34:51;;;;;;;0.80;0.80;;;;;;;;;;5012878;28;20456;-81
2023/07/26 02:37:25;;;;;;;;;;;;;;;;;;5018555;28;20276;-81
2023/07/26 02:39:52;;;;;;;0.80;0.70;;;;;;;;;;5007276;28;20952;-82
2023/07/26 02:42:19;;;;;;;0.70;0.50;;;;;;;;;;5014145;28;20431;-82
2023/07/26 02:44:47;;;;;;;0.70;0.52;;;;;;;;;;5021445;28;20452;-82
2023/07/26 02:47:16;;;;;;;1.00;0.90;;;;;;;;;;5005183;28;20421;-82
2023/07/26 02:49:46;;;;;;;0.80;0.60;;;;;;;;;;5021725;28;20944;-82
2023/07/26 02:52:13;;;;;;;0.70;0.60;;;;;;;;;;5011822;28;20473;-82
2023/07/26 02:54:41;;;;;;;0.70;0.60;;;;;;;;;;5013540;28;20671;-82
2023/07/26 02:57:09;;;;;;;0.70;0.70;;;;;;;;;;5014316;28;20202;-82
2023/07/26 02:59:36;;;;;;;0.80;0.60;;;;;;;;;;5027836;28;20981;-82
2023/07/26 03:02:06;;;;;;;0.70;0.57;;;;;;;;;;5028552;28;20457;-83
2023/07/26 03:04:35;;;;;;;1.23;1.13;;;;;;;;;;5030820;28;20433;-81
2023/07/26 03:07:02;;;;;;;0.70;0.50;;;;;;;;;;5021123;28;20767;-82
2023/07/26 03:09:29;;;;;;;0.80;0.60;;;;;;;;;;5002573;28;20443;-82
2023/07/26 03:11:56;;;;;;;1.00;0.90;;;;;;;;;;5019673;28;20419;-82
2023/07/26 03:14:24;;;;;;;0.70;0.50;;;;;;;;;;5017258;28;20497;-82
2023/07/26 03:16:50;;;;;;;0.82;0.73;;;;;;;;;;5020600;28;20448;-82
2023/07/26 03:19:18;;;;;;;0.73;0.63;;;;;;;;;;5023879;28;20458;-82
2023/07/26 03:21:48;;;;;;;0.90;0.80;;;;;;;;;;5018481;28;20417;-82
2023/07/26 03:24:15;;;;;;;6.00;0.80;;;;;;;;;;5012950;28;20944;-83
2023/07/26 03:26:42;;;;;;;1.50;1.40;;;;;;;;;;5018582;28;20416;-82
2023/07/26 03:29:09;;;;;;;0.70;0.60;;;;;;;;;;5012615;28;20417;-82
2023/07/26 03:31:36;;;;;;;1.00;0.70;;;;;;;;;;5021376;28;21120;-82
2023/07/26 03:34:04;;;;;;;0.80;0.80;;;;;;;;;;5025476;28;20506;-83
2023/07/26 03:36:32;;;;;;;0.70;0.50;;;;;;;;;;5011203;28;20513;-80
2023/07/26 03:39:02;;;;;;;0.70;0.60;;;;;;;;;;5013086;28;20409;-81
2023/07/26 03:41:31;;;;;;;0.90;0.70;;;;;;;;;;5027516;28;20876;-82
2023/07/26 03:44:00;;;;;;;0.70;0.60;;;;;;;;;;5018809;28;20473;-81
2023/07/26 03:46:26;;;;;;;0.90;0.70;;;;;;;;;;5031999;28;20442;-82
2023/07/26 03:48:54;;;;;;;0.70;0.50;;;;;;;;;;5026931;28;20438;-82
2023/07/26 03:51:21;;;;;;;0.70;0.60;;;;;;;;;;5016486;28;20875;-82
2023/07/26 03:53:48;;;;;;;0.70;0.60;;;;;;;;;;5026751;28;20418;-82
2023/07/26 03:56:16;;;;;;;1.20;0.80;;;;;;;;;;4994464;28;20471;-82
2023/07/26 03:58:43;;;;;;;0.70;0.60;;;;;;;;;;4997183;28;20784;-81
2023/07/26 04:01:10;;;;;;;0.70;0.50;;;;;;;;;;5014537;28;20425;-82
2023/07/26 04:03:38;;;;;;;0.70;0.50;;;;;;;;;;5007517;28;20478;-82
2023/07/26 04:06:10;;;;;;;1.10;0.70;;;;;;;;;;5006769;28;20450;-82
2023/07/26 04:08:37;;;;;;;0.70;0.70;;;;;;;;;;5022934;28;20233;-82
2023/07/26 04:11:07;;;;;;;0.80;0.60;;;;;;;;;;5025899;28;20483;-81
2023/07/26 04:13:36;;;;;;;0.80;0.73;;;;;;;;;;5013784;28;20198;-82
2023/07/26 04:16:12;;;;;;;0.80;0.60;;;;;;;;;;5023084;28;20411;-82
2023/07/26 04:18:38;;;;;;;0.70;0.70;;;;;;;;;;5014183;28;20189;-82
2023/07/26 04:21:05;;;;;;;0.70;0.70;;;;;;;;;;5023708;28;20456;-82
2023/07/26 04:23:32;;;;;;;0.83;0.83;;;;;;;;;;5026961;28;20461;-81
2023/07/26 04:25:59;;;;;;;0.90;0.90;;;;;;;;;;5006894;28;20473;-82
2023/07/26 04:28:26;;;;;;;0.77;0.70;;;;;;;;;;5024233;28;20946;-80
2023/07/26 04:30:54;;;;;;;0.70;0.70;;;;;;;;;;4989251;28;20536;-79
2023/07/26 04:33:22;;;;;;;0.73;0.70;;;;;;;;;;5012260;28;20435;-79
2023/07/26 04:35:51;;;;;;;0.80;0.80;;;;;;;;;;5013074;28;20456;-80
2023/07/26 04:38:18;;;;;;;0.70;0.70;;;;;;;;;;5012009;28;20511;-79
2023/07/26 04:40:47;;;;;;;0.70;0.50;;;;;;;;;;5006196;28;20469;-75
2023/07/26 04:43:16;;;;;;;1.30;1.20;;;;;;;;;;5019966;28;20479;-74
2023/07/26 04:45:44;;;;;;;1.03;1.00;;;;;;;;;;5024467;28;20527;-72
2023/07/26 04:48:12;;;;;;;0.70;0.67;;;;;;;;;;5025184;28;20483;-72
2023/07/26 04:50:39;;;;;;;0.70;0.70;;;;;;;;;;5020094;28;20475;-74
2023/07/26 04:53:06;;;;;;;0.70;0.70;;;;;;;;;;5024204;28;20556;-74
2023/07/26 04:55:39;;;;;;;0.80;0.80;;;;;;;;;;5012429;28;20442;-74
2023/07/26 04:58:06;;;;;;;0.80;0.80;;;;;;;;;;5009019;28;20879;-73
2023/07/26 05:00:33;;;;;;;0.90;0.90;;;;;;;;;;5023791;28;20499;-72
2023/07/26 05:03:00;;;;;;;0.70;0.70;;;;;;;;;;5021967;28;20442;-74
2023/07/26 05:05:28;;;;;;;0.73;0.73;;;;;;;;;;5018889;28;20992;-73
2023/07/26 05:07:55;;;;;;;0.70;0.70;;;;;;;;;;5023932;28;20510;-75
2023/07/26 05:10:23;;;;;;;0.90;0.90;;;;;;;;;;5019818;28;20998;-73
2023/07/26 05:12:50;;;;;;;0.70;0.70;;;;;;;;;;5024231;28;20470;-72
2023/07/26 05:15:17;;;;;;;0.77;0.73;;;;;;;;;;5010318;28;20460;-74
2023/07/26 05:17:44;;;;;;;0.70;0.60;;;;;;;;;;5025276;28;20484;-74
2023/07/26 05:20:11;;;;;;;0.70;0.70;;;;;;;;;;5022148;28;20440;-74
2023/07/26 05:22:39;;;;;;;0.70;0.70;;;;;;;;;;5023899;28;20456;-73
2023/07/26 05:25:06;;;;;;;0.73;0.73;;;;;;;;;;5026404;28;20903;-74
2023/07/26 05:27:33;;;;;;;0.70;0.70;;;;;;;;;;5029161;28;20439;-74
2023/07/26 05:29:59;;;;;;;12.53;2.13;;;;;;;;;;5026054;28;20547;-73
2023/07/26 05:32:26;;;;;;;0.70;0.70;;;;;;;;;;5011808;28;20473;-73
2023/07/26 05:34:53;;;;;;;0.70;0.60;;;;;;;;;;5025080;28;20533;-73
2023/07/26 05:37:20;;;;;;;0.70;0.60;;;;;;;;;;5022878;28;20450;-73
2023/07/26 05:39:52;;;;;;;0.70;0.70;;;;;;;;;;5008425;28;20450;-73
2023/07/26 05:42:19;;;;;;;0.80;0.73;;;;;;;;;;5027294;28;20465;-74
2023/07/26 05:44:45;;;;;;;0.80;0.70;;;;;;;;;;5025247;28;20523;-75
2023/07/26 05:47:14;;;;;;;0.70;0.70;;;;;;;;;;5024447;28;20441;-74
2023/07/26 05:49:41;;;;;;;2.30;1.07;;;;;;;;;;5012080;28;20435;-75
2023/07/26 05:52:07;;;;;;;0.70;0.60;;;;;;;;;;5013249;28;20473;-76
2023/07/26 05:54:34;;;;;;;0.70;0.60;;;;;;;;;;5022390;28;20444;-74
2023/07/26 05:57:03;;;;;;;0.70;0.70;;;;;;;;;;5006150;28;20447;-74
2023/07/26 05:59:30;;;;;;;0.70;0.70;;;;;;;;;;5013467;28;20430;-74
2023/07/26 06:01:58;;;;;;;0.80;0.70;;;;;;;;;;5027100;28;20440;-73
2023/07/26 06:04:25;;;;;;;0.80;0.80;;;;;;;;;;5009570;28;20440;-74
2023/07/26 06:06:52;;;;;;;0.70;0.60;;;;;;;;;;5008656;28;20508;-72
2023/07/26 06:09:20;;;;;;;0.80;0.80;;;;;;;;;;5023133;28;20476;-73
2023/07/26 06:11:47;;;;;;;0.70;0.67;;;;;;;;;;4996162;28;20436;-73
2023/07/26 06:14:24;;;;;;;0.70;0.60;;;;;;;;;;5026387;28;20844;-72
2023/07/26 06:16:52;;;;;;;1.10;1.00;;;;;;;;;;5007561;28;20448;-74
2023/07/26 06:19:19;;;;;;;0.80;0.80;;;;;;;;;;5021474;28;20431;-72
2023/07/26 06:21:46;;;;;;;0.70;0.70;;;;;;;;;;5021498;28;20439;-73
2023/07/26 06:24:13;;;;;;;1.90;1.13;;;;;;;;;;5006652;28;20443;-73
2023/07/26 06:26:39;;;;;;;0.80;0.80;;;;;;;;;;5024368;28;20435;-74
2023/07/26 06:29:06;;;;;;;1.47;1.37;;;;;;;;;;5008868;28;20811;-73
2023/07/26 06:31:34;;;;;;;1.10;1.00;;;;;;;;;;5013621;28;20452;-74
2023/07/26 06:34:02;;;;;;;0.80;0.80;;;;;;;;;;5023236;28;20445;-74
2023/07/26 06:36:29;;;;;;;0.70;0.70;;;;;;;;;;5025060;28;20538;-75
2023/07/26 06:38:56;;;;;;;0.70;0.60;;;;;;;;;;5024033;28;20886;-76
2023/07/26 06:41:23;;;;;;;0.70;0.60;;;;;;;;;;5007715;28;20973;-74
2023/07/26 06:43:50;;;;;;;0.77;0.77;;;;;;;;;;5011008;28;20463;-74
2023/07/26 06:46:17;;;;;;;1.00;0.90;;;;;;;;;;5025482;28;20553;-75
2023/07/26 06:48:45;;;;;;;0.70;0.60;;;;;;;;;;5025359;28;20506;-75
2023/07/26 06:51:12;;;;;;;0.70;0.70;;;;;;;;;;5011021;28;20446;-72
2023/07/26 06:53:40;;;;;;;0.70;0.70;;;;;;;;;;4994577;28;20480;-74
2023/07/26 06:56:07;;;;;;;0.70;0.70;;;;;;;;;;5012599;28;20446;-74
2023/07/26 06:58:34;;;;;;;0.70;0.70;;;;;;;;;;5026223;28;20456;-73
2023/07/26 07:01:01;;;;;;;0.70;0.70;;;;;;;;;;5012307;28;20440;-73
2023/07/26 07:03:28;;;;;;;0.80;0.80;;;;;;;;;;5009396;28;20471;-75
2023/07/26 07:05:56;;;;;;;0.70;0.70;;;;;;;;;;5010802;28;20994;-75
2023/07/26 07:08:24;;;;;;;0.83;0.83;;;;;;;;;;5021738;28;20509;-73
2023/07/26 07:10:52;;;;;;;0.70;0.60;;;;;;;;;;5008991;28;20966;-75
2023/07/26 07:13:19;;;;;;;0.70;0.67;;;;;;;;;;5008921;28;20531;-76
2023/07/26 07:15:46;;;;;;;0.80;0.80;;;;;;;;;;5025038;28;20535;-75
2023/07/26 07:18:14;;;;;;;0.70;0.70;;;;;;;;;;5012261;28;20452;-76
2023/07/26 07:20:43;;;;;;;1.07;0.97;;;;;;;;;;5009564;28;20444;-73
2023/07/26 07:23:11;;;;;;;1.47;1.37;;;;;;;;;;5014099;28;20467;-75
2023/07/26 07:25:38;;;;;;;0.70;0.70;;;;;;;;;;5011660;28;20930;-75
2023/07/26 07:28:05;;;;;;;0.70;0.70;;;;;;;;;;5023014;28;20458;-73
2023/07/26 07:30:32;;;;;;;0.80;0.80;;;;;;;;;;5012353;28;20437;-73
2023/07/26 07:32:58;;;;;;;0.70;0.70;;;;;;;;;;5023921;28;20966;-74
2023/07/26 07:35:25;;;;;;;0.80;0.80;;;;;;;;;;5023483;28;20437;-73
2023/07/26 07:37:52;;;;;;;0.70;0.60;;;;;;;;;;5010111;28;20460;-74
2023/07/26 07:40:20;;;;;;;1.07;0.97;;;;;;;;;;5005430;28;20946;-74
2023/07/26 07:42:47;;;;;;;0.70;0.70;;;;;;;;;;5004472;28;20491;-74
2023/07/26 07:45:14;;;;;;;0.70;0.70;;;;;;;;;;5012893;28;20556;-76
2023/07/26 07:47:40;;;;;;;0.70;0.70;;;;;;;;;;5024345;28;20435;-73
2023/07/26 07:50:08;;;;;;;0.70;0.60;;;;;;;;;;5028260;28;20446;-72
2023/07/26 07:52:36;;;;;;;0.70;0.67;;;;;;;;;;5007249;28;20523;-73
2023/07/26 07:55:04;;;;;;;1.00;0.90;;;;;;;;;;5012778;28;20441;-73
2023/07/26 07:57:32;;;;;;;1.00;0.90;;;;;;;;;;5023653;28;20484;-75
2023/07/26 07:59:58;;;;;;;;;;;;;;;;;;5022244;28;20312;-72
2023/07/26 08:02:25;;;;;;;;;;;;;;;;;;5022119;28;19921;-74
2023/07/26 08:04:52;;;;;;;;;;;;;;;;;;5019976;28;20602;-74
2023/07/26 08:07:19;;;;;;;;;;;;;;;;;;5011587;28;19922;-75
2023/07/26 08:09:46;;;;;;;0.70;0.50;;;;;;;;;;5011157;28;20417;-75
2023/07/26 08:12:12;;;;;;;1.77;1.17;;;;;;;;;;5012240;28;20747;-76
2023/07/26 08:14:46;;;;;;;0.70;0.60;;;;;;;;;;5012467;28;20513;-76
2023/07/26 08:17:12;;;;;;;0.80;0.70;;;;;;;;;;5024858;28;20778;-74
2023/07/26 08:19:39;;;;;;;0.80;0.80;;;;;;;;;;5024261;28;20433;-74
2023/07/26 08:22:06;;;;;;;0.80;0.80;;;;;;;;;;5025205;28;20489;-75
2023/07/26 08:24:33;;;;;;;1.00;0.90;;;;;;;;;;5013538;28;20491;-77
2023/07/26 08:27:02;;;;;;;0.70;0.70;;;;;;;;;;5022818;28;20512;-76
2023/07/26 08:29:29;;;;;;;0.80;0.70;;;;;;;;;;5024019;28;20438;-74
2023/07/26 08:32:00;;;;;;;0.80;0.80;;;;;;;;;;5012518;28;20516;-77
2023/07/26 08:34:26;;;;;;;0.70;0.70;;;;;;;;;;5020110;28;20800;-75
2023/07/26 08:36:53;;;;;;;0.70;0.60;;;;;;;;;;5024810;28;20520;-76
2023/07/26 08:39:20;;;;;;;0.70;0.60;;;;;;;;;;5007715;28;20445;-77
2023/07/26 08:42:01;;;;;;;0.80;0.77;;;;;;;;;;5021820;28;20407;-78
2023/07/26 08:44:29;;;;;;;0.70;0.67;;;;;;;;;;5020557;28;20461;-77
2023/07/26 08:46:56;;;;;;;0.70;0.70;;;;;;;;;;4995188;28;20466;-80
2023/07/26 08:49:24;;;;;;;4.50;1.40;;;;;;;;;;5011295;28;20442;-80
2023/07/26 08:51:51;;;;;;;0.70;0.60;;;;;;;;;;5007331;28;20531;-79
2023/07/26 08:54:19;;;;;;;0.70;0.70;;;;;;;;;;5011772;28;20476;-80
2023/07/26 08:56:48;;;;;;;2.27;2.00;;;;;;;;;;5027809;28;20524;-81
2023/07/26 08:59:15;;;;;;;0.97;0.97;;;;;;;;;;5017068;28;20416;-80
2023/07/26 09:01:41;;;;;;;0.80;0.80;;;;;;;;;;5027196;28;20473;-80
2023/07/26 09:04:29;;;;;;;0.70;0.70;;;;;;;;;;5017524;28;20415;-79
2023/07/26 09:07:00;;;;;;;0.70;0.60;;;;;;;;;;5025488;28;21269;-80
2023/07/26 09:09:27;;;;;;;0.80;0.80;;;;;;;;;;5009035;28;20430;-80
2023/07/26 09:11:54;;;;;;;0.80;0.80;;;;;;;;;;5011510;28;20543;-80
2023/07/26 09:14:26;;;;;;;0.80;0.70;;;;;;;;;;5024946;28;20433;-81
2023/07/26 09:16:54;;;;;;;0.80;0.80;;;;;;;;;;5012267;28;20438;-80
2023/07/26 09:19:26;;;;;;;0.80;0.70;;;;;;;;;;5007229;28;20440;-79
2023/07/26 09:21:59;;;;;;;0.70;0.70;;;;;;;;;;5024022;28;20495;-80
2023/07/26 09:24:28;;;;;;;0.70;0.70;;;;;;;;;;5028119;28;20437;-80
2023/07/26 09:27:01;;;;;;;0.80;0.80;;;;;;;;;;5008523;28;21577;-79
2023/07/26 09:29:28;;;;;;;0.80;0.80;;;;;;;;;;5022543;28;20428;-81
2023/07/26 09:31:54;;;;;;;0.70;0.60;;;;;;;;;;5025433;28;20851;-80
2023/07/26 09:34:22;;;;;;;2.03;0.97;;;;;;;;;;5016901;28;20448;-80
2023/07/26 09:36:49;;;;;;;0.77;0.70;;;;;;;;;;5024325;28;20428;-80
2023/07/26 09:39:18;;;;;;;0.70;0.70;;;;;;;;;;4995684;28;20846;-80
2023/07/26 09:41:45;;;;;;;0.77;0.70;;;;;;;;;;5016228;28;20440;-78
2023/07/26 09:44:16;;;;;;;2.00;1.90;;;;;;;;;;5018091;28;20501;-79
2023/07/26 09:46:50;;;;;;;0.80;0.77;;;;;;;;;;5011350;28;20454;-79
2023/07/26 09:49:17;;;;;;;0.70;0.70;;;;;;;;;;5016400;28;20415;-77
2023/07/26 09:51:48;;;;;;;0.73;0.70;;;;;;;;;;5014435;28;20423;-80
2023/07/26 09:54:19;;;;;;;0.70;0.60;;;;;;;;;;5025604;28;20807;-80
2023/07/26 09:56:50;;;;;;;0.70;0.60;;;;;;;;;;4992842;28;21013;-80
2023/07/26 09:59:17;;;;;;;0.80;0.80;;;;;;;;;;5027782;28;20437;-79
2023/07/26 10:01:45;;;;;;;0.70;0.60;;;;;;;;;;5015477;28;21406;-81
2023/07/26 10:04:15;;;;;;;0.80;0.80;;;;;;;;;;5022338;28;20528;-81
2023/07/26 10:06:43;;;;;;;0.80;0.77;;;;;;;;;;5007094;28;20873;-79
2023/07/26 10:09:12;;;;;;;0.70;0.70;;;;;;;;;;5022029;28;20440;-76
2023/07/26 10:11:42;;;;;;;0.70;0.70;;;;;;;;;;5014409;28;20464;-77
2023/07/26 10:14:10;;;;;;;1.17;1.07;;;;;;;;;;5009631;28;20458;-77
2023/07/26 10:16:37;;;;;;;0.90;0.90;;;;;;;;;;5020613;28;20447;-76
2023/07/26 10:19:07;;;;;;;0.70;0.60;;;;;;;;;;5027120;28;20463;-76
2023/07/26 10:21:36;;;;;;;0.80;0.80;;;;;;;;;;5024744;28;20445;-73
2023/07/26 10:24:03;;;;;;;0.70;0.60;;;;;;;;;;5022997;28;20552;-73
2023/07/26 10:26:31;;;;;;;0.70;0.70;;;;;;;;;;5023320;28;20858;-74
2023/07/26 10:28:59;;;;;;;0.70;0.70;;;;;;;;;;5019851;28;20472;-74
2023/07/26 10:31:26;;;;;;;0.90;0.90;;;;;;;;;;5007876;28;20444;-73
2023/07/26 10:33:53;;;;;;;0.70;0.70;;;;;;;;;;5013978;28;20801;-74
2023/07/26 10:36:20;;;;;;;0.80;0.77;;;;;;;;;;5022493;28;20460;-74
2023/07/26 10:38:48;;;;;;;0.83;0.83;;;;;;;;;;5025657;28;20463;-73
2023/07/26 10:41:21;;;;;;;0.70;0.70;;;;;;;;;;5021079;28;20965;-72
2023/07/26 10:43:48;;;;;;;1.43;1.33;;;;;;;;;;5022437;28;20440;-74
2023/07/26 10:46:16;;;;;;;0.70;0.70;;;;;;;;;;5012806;28;20868;-75
2023/07/26 10:48:43;;;;;;;0.70;0.70;;;;;;;;;;5023925;28;20424;-74
2023/07/26 10:51:24;;;;;;;0.80;0.70;;;;;;;;;;5018877;28;20447;-76
2023/07/26 10:53:53;;;;;;;0.80;0.80;;;;;;;;;;5024337;28;20982;-75
2023/07/26 10:56:22;;;;;;;1.33;1.23;;;;;;;;;;5022294;28;20452;-76
2023/07/26 10:58:50;;;;;;;1.73;1.63;;;;;;;;;;5021609;28;20965;-75
2023/07/26 11:01:36;;;;;;;0.70;0.60;;;;;;;;;;5024224;28;20465;-76
2023/07/26 11:04:08;;;;;;;0.70;0.67;;;;;;;;;;5026050;28;20424;-75
2023/07/26 11:06:35;;;;;;;;;;;;;;;;;;5026178;28;20306;-72
2023/07/26 11:09:01;;;;;;;;;;;;;;;;;;5013180;28;19924;-76
2023/07/26 11:11:28;;;;;;;;;;;;;;;;;;5008983;28;20301;-72
2023/07/26 11:13:54;;;;;;;;;;;;;;;;;;5011015;28;19921;-75
2023/07/26 11:16:21;;;;;;;;;;;;;;;;;;5019114;28;20378;-73
2023/07/26 11:18:48;;;;;;;;;;;;;;;;;;5021098;28;20370;-73
2023/07/26 11:21:16;;;;;;;0.70;0.70;;;;;;;;;;5013490;28;20237;-73
2023/07/26 11:23:44;;;;;;;0.70;0.50;;;;;;;;;;5021697;28;20403;-75
2023/07/26 11:26:11;;;;;;;0.70;0.70;;;;;;;;;;5010303;28;20828;-76
2023/07/26 11:28:38;;;;;;;0.80;0.80;;;;;;;;;;5011617;28;20567;-74
2023/07/26 11:31:06;;;;;;;1.53;1.43;;;;;;;;;;5023251;28;20445;-74
2023/07/26 11:33:34;;;;;;;0.70;0.70;;;;;;;;;;5021970;28;20447;-75
2023/07/26 11:36:02;;;;;;;2.53;1.27;;;;;;;;;;5029155;28;20506;-76
2023/07/26 11:38:30;;;;;;;0.80;0.73;;;;;;;;;;5012679;28;20515;-74
2023/07/26 11:40:58;;;;;;;0.80;0.73;;;;;;;;;;5023995;28;20444;-77
2023/07/26 11:43:25;;;;;;;0.70;0.70;;;;;;;;;;5024077;28;21131;-76
2023/07/26 11:45:53;;;;;;;11.10;2.20;;;;;;;;;;5021547;28;20616;-73
2023/07/26 11:48:21;;;;;;;1.47;1.37;;;;;;;;;;5022986;28;20426;-75
2023/07/26 11:50:48;;;;;;;0.70;0.70;;;;;;;;;;5021872;28;20443;-73
2023/07/26 11:53:15;;;;;;;0.70;0.70;;;;;;;;;;5020740;28;20563;-75
2023/07/26 11:55:59;;;;;;;0.87;0.83;;;;;;;;;;4997013;28;20454;-73
2023/07/26 11:58:26;;;;;;;0.70;0.70;;;;;;;;;;5022040;28;20471;-75
2023/07/26 12:00:54;;;;;;;0.70;0.70;;;;;;;;;;5023256;28;20437;-73
2023/07/26 12:03:21;;;;;;;0.70;0.70;;;;;;;;;;5012953;28;20555;-73
2023/07/26 12:05:49;;;;;;;0.80;0.80;;;;;;;;;;5021287;28;20442;-76
2023/07/26 12:08:17;;;;;;;0.80;0.80;;;;;;;;;;5024655;28;20477;-75
2023/07/26 12:10:46;;;;;;;1.00;0.90;;;;;;;;;;5010219;28;20451;-76
2023/07/26 12:13:19;;;;;;;1.97;1.87;;;;;;;;;;5009461;28;20481;-74
2023/07/26 12:15:52;;;;;;;0.70;0.70;;;;;;;;;;5009812;28;20588;-75
2023/07/26 12:18:19;;;;;;;0.70;0.70;;;;;;;;;;5012533;28;20441;-75
2023/07/26 12:20:56;;;;;;;0.70;0.70;;;;;;;;;;5010761;28;20453;-75
2023/07/26 12:23:29;;;;;;;1.67;1.57;;;;;;;;;;5013471;28;20539;-75
2023/07/26 12:25:56;;;;;;;;;;;;;;;;;;5020129;28;20364;-75
2023/07/26 12:28:24;;;;;;;;;;;;;;;;;;5013954;28;20016;-76
2023/07/26 12:30:50;;;;;;;;;;;;;;;;;;5010894;28;19971;-75
2023/07/26 12:33:19;;;;;;;0.80;0.60;;;;;;;;;;5020372;28;20407;-74
2023/07/26 12:35:46;;;;;;;0.70;0.60;;;;;;;;;;5024366;28;20552;-75
2023/07/26 12:38:18;;;;;;;0.80;0.80;;;;;;;;;;5009494;28;20473;-78
2023/07/26 12:40:46;;;;;;;0.80;0.80;;;;;;;;;;5025500;28;20913;-77
2023/07/26 12:43:26;;;;;;;0.87;0.83;;;;;;;;;;5011991;28;20441;-78
2023/07/26 12:45:53;;;;;;;0.70;0.67;;;;;;;;;;5021661;28;20548;-79
2023/07/26 12:48:22;;;;;;;0.87;0.80;;;;;;;;;;5021689;28;20471;-79
2023/07/26 12:50:51;;;;;;;0.70;0.60;;;;;;;;;;5013432;28;20905;-81
2023/07/26 12:53:17;;;;;;;;;;;;;;;;;;5022810;28;20292;-78
2023/07/26 12:55:44;;;;;;;0.73;0.63;;;;;;;;;;5019969;28;20428;-77
2023/07/26 12:58:11;;;;;;;0.70;0.60;;;;;;;;;;5022727;28;20497;-79
2023/07/26 13:00:39;;;;;;;0.70;0.57;;;;;;;;;;5006393;28;20226;-78
2023/07/26 13:03:06;;;;;;;0.70;0.60;;;;;;;;;;5018851;28;20992;-77
2023/07/26 13:05:34;;;;;;;0.93;0.73;;;;;;;;;;5011092;28;20443;-79
2023/07/26 13:08:02;;;;;;;0.80;0.70;;;;;;;;;;5023401;28;20484;-79
2023/07/26 13:10:29;;;;;;;0.80;0.60;;;;;;;;;;5027743;28;20445;-82
2023/07/26 13:12:56;;;;;;;0.70;0.60;;;;;;;;;;5007887;28;20535;-79
2023/07/26 13:15:23;;;;;;;0.80;0.70;;;;;;;;;;5011614;28;21192;-79
2023/07/26 13:17:51;;;;;;;0.70;0.60;;;;;;;;;;5005587;28;20420;-80
2023/07/26 13:20:18;;;;;;;0.70;0.60;;;;;;;;;;5027760;28;20217;-79
2023/07/26 13:22:47;;;;;;;1.53;0.87;;;;;;;;;;5010595;28;20465;-80
2023/07/26 13:25:13;;;;;;;0.80;0.60;;;;;;;;;;5007776;28;20510;-79
2023/07/26 13:27:42;;;;;;;0.70;0.60;;;;;;;;;;5010982;28;20469;-75
2023/07/26 13:30:09;;;;;;;1.10;1.00;;;;;;;;;;5019033;28;20539;-77
2023/07/26 13:32:37;;;;;;;0.90;0.90;;;;;;;;;;5005038;28;20453;-77
2023/07/26 13:35:04;;;;;;;1.80;1.33;;;;;;;;;;5011419;28;20511;-79
2023/07/26 13:37:34;;;;;;;0.70;0.70;;;;;;;;;;5013750;28;20574;-77
2023/07/26 13:40:02;;;;;;;1.60;1.00;;;;;;;;;;5024616;28;20436;-78
2023/07/26 13:42:33;;;;;;;0.80;0.70;;;;;;;;;;5026958;28;20432;-79
2023/07/26 13:45:01;;;;;;;0.77;0.70;;;;;;;;;;5011530;28;20459;-80
2023/07/26 13:47:30;;;;;;;1.00;0.90;;;;;;;;;;5030581;28;20792;-80
2023/07/26 13:49:57;;;;;;;0.70;0.60;;;;;;;;;;5016275;28;20455;-77
2023/07/26 13:52:24;;;;;;;0.70;0.63;;;;;;;;;;5015912;28;20465;-79
2023/07/26 13:54:51;;;;;;;0.70;0.60;;;;;;;;;;5011147;28;20433;-78
2023/07/26 13:57:19;;;;;;;0.80;0.60;;;;;;;;;;5020614;28;20440;-78
2023/07/26 13:59:46;;;;;;;0.70;0.60;;;;;;;;;;5031281;28;20468;-77
2023/07/26 14:02:12;;;;;;;1.20;0.80;;;;;;;;;;5018501;28;20447;-76
2023/07/26 14:04:39;;;;;;;1.63;1.53;;;;;;;;;;5015883;28;20441;-79
2023/07/26 14:07:07;;;;;;;0.83;0.67;;;;;;;;;;5001645;28;21023;-78
2023/07/26 14:09:36;;;;;;;0.70;0.70;;;;;;;;;;5019851;28;20453;-78
2023/07/26 14:12:03;;;;;;;1.67;1.57;;;;;;;;;;5032559;28;20440;-78
2023/07/26 14:14:31;;;;;;;0.70;0.50;;;;;;;;;;5026774;28;20433;-78
2023/07/26 14:16:58;;;;;;;0.70;0.60;;;;;;;;;;5025686;28;20437;-77
2023/07/26 14:19:25;;;;;;;0.70;0.60;;;;;;;;;;5011376;28;20863;-78
2023/07/26 14:21:51;;;;;;;0.80;0.70;;;;;;;;;;5026713;28;20461;-75
2023/07/26 14:24:18;;;;;;;;;;;;;;;;;;5015650;28;20382;-74
2023/07/26 14:26:44;;;;;;;1.10;0.60;;;;;;;;;;5020639;28;20412;-75
2023/07/26 14:29:11;;;;;;;0.80;0.70;;;;;;;;;;5014881;28;20206;-76
2023/07/26 14:31:39;;;;;;;0.80;0.80;;;;;;;;;;5012357;28;20572;-80
2023/07/26 14:34:06;;;;;;;0.80;0.60;;;;;;;;;;5010933;28;20451;-75
2023/07/26 14:36:33;;;;;;;0.80;0.77;;;;;;;;;;5010882;28;20437;-80
2023/07/26 14:39:00;;;;;;;0.80;0.60;;;;;;;;;;5010385;28;20977;-79
2023/07/26 14:41:27;;;;;;;0.70;0.60;;;;;;;;;;5023711;28;20484;-81
2023/07/26 14:43:53;;;;;;;0.70;0.60;;;;;;;;;;5009307;28;20565;-81
2023/07/26 14:46:21;;;;;;;0.90;0.80;;;;;;;;;;5026014;28;20468;-81
2023/07/26 14:48:49;;;;;;;0.80;0.70;;;;;;;;;;5007459;28;21014;-80
2023/07/26 14:51:16;;;;;;;0.70;0.60;;;;;;;;;;5004147;28;20937;-79
2023/07/26 14:53:43;;;;;;;1.10;0.80;;;;;;;;;;5023746;28;20466;-80